sensor_id;sensor_type;location;lat;lon;timestamp;pressure;altitude;pressure_sealevel;temperature;humidity
21980;BME280;11154;48.558;9.234;2023-04-28T00:00:44;97341.94;;;14.57;74.61
21980;BME280;11154;48.558;9.234;2023-04-28T00:02:46;97331.88;;;14.59;73.44
21980;BME280;11154;48.558;9.234;2023-04-28T00:04:48;97320.94;;;14.54;73.79
21980;BME280;11154;48.558;9.234;2023-04-28T00:06:50;97335.13;;;14.54;74.45
21980;BME280;11154;48.558;9.234;2023-04-28T00:08:52;97334.94;;;14.56;74.77
21980;BME280;11154;48.558;9.234;2023-04-28T00:10:53;97338.66;;;14.55;74.75
21980;BME280;11154;48.558;9.234;2023-04-28T00:12:55;97323.97;;;14.51;75.00
21980;BME280;11154;48.558;9.234;2023-04-28T00:14:58;97324.16;;;14.49;75.75
21980;BME280;11154;48.558;9.234;2023-04-28T00:17:00;97330.34;;;14.50;76.37
21980;BME280;11154;48.558;9.234;2023-04-28T00:19:02;97328.88;;;14.47;76.59
21980;BME280;11154;48.558;9.234;2023-04-28T00:21:04;97335.88;;;14.48;77.62
21980;BME280;11154;48.558;9.234;2023-04-28T00:23:06;97337.56;;;14.49;78.83
21980;BME280;11154;48.558;9.234;2023-04-28T00:25:08;97341.44;;;14.47;78.96
21980;BME280;11154;48.558;9.234;2023-04-28T00:27:10;97344.47;;;14.44;79.36
21980;BME280;11154;48.558;9.234;2023-04-28T00:29:11;97325.13;;;14.42;79.49
21980;BME280;11154;48.558;9.234;2023-04-28T00:31:14;97322.38;;;14.36;77.94
21980;BME280;11154;48.558;9.234;2023-04-28T00:33:16;97319.44;;;14.31;77.51
21980;BME280;11154;48.558;9.234;2023-04-28T00:35:18;97335.50;;;14.31;76.52
21980;BME280;11154;48.558;9.234;2023-04-28T00:37:20;97324.41;;;14.34;77.55
21980;BME280;11154;48.558;9.234;2023-04-28T00:39:22;97320.34;;;14.38;78.41
21980;BME280;11154;48.558;9.234;2023-04-28T00:41:24;97326.16;;;14.41;76.34
21980;BME280;11154;48.558;9.234;2023-04-28T00:43:26;97314.44;;;14.42;75.05
21980;BME280;11154;48.558;9.234;2023-04-28T00:45:28;97316.72;;;14.45;75.36
21980;BME280;11154;48.558;9.234;2023-04-28T00:47:31;97326.19;;;14.47;74.75
21980;BME280;11154;48.558;9.234;2023-04-28T00:49:33;97319.84;;;14.48;74.44
21980;BME280;11154;48.558;9.234;2023-04-28T00:51:36;97319.03;;;14.48;74.25
21980;BME280;11154;48.558;9.234;2023-04-28T00:53:38;97313.66;;;14.48;74.21
21980;BME280;11154;48.558;9.234;2023-04-28T00:55:39;97306.25;;;14.50;73.95
21980;BME280;11154;48.558;9.234;2023-04-28T00:57:41;97306.53;;;14.55;74.18
21980;BME280;11154;48.558;9.234;2023-04-28T00:59:43;97301.19;;;14.55;73.94
21980;BME280;11154;48.558;9.234;2023-04-28T01:01:45;97301.56;;;14.52;74.17
21980;BME280;11154;48.558;9.234;2023-04-28T01:03:48;97295.44;;;14.58;75.24
21980;BME280;11154;48.558;9.234;2023-04-28T01:05:49;97298.97;;;14.58;75.73
21980;BME280;11154;48.558;9.234;2023-04-28T01:07:51;97299.97;;;14.57;75.07
21980;BME280;11154;48.558;9.234;2023-04-28T01:09:53;97303.88;;;14.55;75.48
21980;BME280;11154;48.558;9.234;2023-04-28T01:11:55;97296.66;;;14.55;75.11
21980;BME280;11154;48.558;9.234;2023-04-28T01:13:57;97295.84;;;14.55;77.00
21980;BME280;11154;48.558;9.234;2023-04-28T01:15:59;97289.84;;;14.53;77.74
21980;BME280;11154;48.558;9.234;2023-04-28T01:18:01;97293.31;;;14.53;77.44
21980;BME280;11154;48.558;9.234;2023-04-28T01:20:06;97299.53;;;14.54;77.58
21980;BME280;11154;48.558;9.234;2023-04-28T01:22:08;97291.88;;;14.51;77.16
21980;BME280;11154;48.558;9.234;2023-04-28T01:24:12;97297.00;;;14.52;77.42
21980;BME280;11154;48.558;9.234;2023-04-28T01:26:14;97298.69;;;14.53;77.98
21980;BME280;11154;48.558;9.234;2023-04-28T01:28:15;97298.22;;;14.50;78.33
21980;BME280;11154;48.558;9.234;2023-04-28T01:30:17;97297.41;;;14.49;78.20
21980;BME280;11154;48.558;9.234;2023-04-28T01:32:19;97289.59;;;14.48;78.21
21980;BME280;11154;48.558;9.234;2023-04-28T01:34:20;97278.88;;;14.48;78.87
21980;BME280;11154;48.558;9.234;2023-04-28T01:36:22;97273.69;;;14.46;78.08
21980;BME280;11154;48.558;9.234;2023-04-28T01:38:24;97277.22;;;14.47;77.32
21980;BME280;11154;48.558;9.234;2023-04-28T01:40:27;97282.19;;;14.50;75.95
21980;BME280;11154;48.558;9.234;2023-04-28T01:42:29;97277.47;;;14.52;75.68
21980;BME280;11154;48.558;9.234;2023-04-28T01:44:31;97271.56;;;14.56;75.06
21980;BME280;11154;48.558;9.234;2023-04-28T01:46:32;97272.00;;;14.60;75.19
21980;BME280;11154;48.558;9.234;2023-04-28T01:48:34;97264.78;;;14.60;75.36
21980;BME280;11154;48.558;9.234;2023-04-28T01:50:36;97276.13;;;14.62;76.26
21980;BME280;11154;48.558;9.234;2023-04-28T01:52:37;97274.28;;;14.63;75.62
21980;BME280;11154;48.558;9.234;2023-04-28T01:54:39;97270.97;;;14.61;74.69
21980;BME280;11154;48.558;9.234;2023-04-28T01:56:42;97266.25;;;14.63;74.82
21980;BME280;11154;48.558;9.234;2023-04-28T01:58:44;97264.63;;;14.62;74.51
21980;BME280;11154;48.558;9.234;2023-04-28T02:00:46;97260.72;;;14.64;75.89
21980;BME280;11154;48.558;9.234;2023-04-28T02:02:48;97258.88;;;14.65;75.02
21980;BME280;11154;48.558;9.234;2023-04-28T02:04:49;97259.88;;;14.64;75.35
21980;BME280;11154;48.558;9.234;2023-04-28T02:06:51;97264.22;;;14.65;75.07
21980;BME280;11154;48.558;9.234;2023-04-28T02:08:53;97274.72;;;14.66;75.56
21980;BME280;11154;48.558;9.234;2023-04-28T02:10:54;97274.91;;;14.65;75.15
21980;BME280;11154;48.558;9.234;2023-04-28T02:12:58;97262.69;;;14.56;75.49
21980;BME280;11154;48.558;9.234;2023-04-28T02:15:00;97252.19;;;14.54;76.27
21980;BME280;11154;48.558;9.234;2023-04-28T02:17:02;97264.91;;;14.52;76.20
21980;BME280;11154;48.558;9.234;2023-04-28T02:19:04;97263.06;;;14.53;76.43
21980;BME280;11154;48.558;9.234;2023-04-28T02:21:09;97249.25;;;14.49;76.04
21980;BME280;11154;48.558;9.234;2023-04-28T02:23:11;97255.41;;;14.50;76.22
21980;BME280;11154;48.558;9.234;2023-04-28T02:25:13;97242.69;;;14.52;76.38
21980;BME280;11154;48.558;9.234;2023-04-28T02:27:14;97236.53;;;14.51;76.44
21980;BME280;11154;48.558;9.234;2023-04-28T02:29:17;97244.56;;;14.51;76.37
21980;BME280;11154;48.558;9.234;2023-04-28T02:31:19;97243.34;;;14.54;76.77
21980;BME280;11154;48.558;9.234;2023-04-28T02:33:21;97232.63;;;14.54;76.42
21980;BME280;11154;48.558;9.234;2023-04-28T02:35:23;97229.56;;;14.57;76.34
21980;BME280;11154;48.558;9.234;2023-04-28T02:37:24;97239.44;;;14.56;76.75
21980;BME280;11154;48.558;9.234;2023-04-28T02:39:26;97237.56;;;14.57;76.53
21980;BME280;11154;48.558;9.234;2023-04-28T02:41:29;97245.59;;;14.57;76.66
21980;BME280;11154;48.558;9.234;2023-04-28T02:43:31;97254.94;;;14.61;76.76
21980;BME280;11154;48.558;9.234;2023-04-28T02:45:43;97244.47;;;14.66;77.79
21980;BME280;11154;48.558;9.234;2023-04-28T02:47:45;97246.28;;;14.65;77.95
21980;BME280;11154;48.558;9.234;2023-04-28T02:49:47;97248.16;;;14.65;78.13
21980;BME280;11154;48.558;9.234;2023-04-28T02:51:48;97251.47;;;14.67;77.99
21980;BME280;11154;48.558;9.234;2023-04-28T02:53:50;97250.63;;;14.66;78.54
21980;BME280;11154;48.558;9.234;2023-04-28T02:55:51;97241.78;;;14.66;79.17
21980;BME280;11154;48.558;9.234;2023-04-28T02:57:53;97240.31;;;14.63;78.96
21980;BME280;11154;48.558;9.234;2023-04-28T02:59:55;97236.81;;;14.63;78.28
21980;BME280;11154;48.558;9.234;2023-04-28T03:01:58;97234.97;;;14.63;78.05
21980;BME280;11154;48.558;9.234;2023-04-28T03:03:59;97236.00;;;14.62;77.97
21980;BME280;11154;48.558;9.234;2023-04-28T03:06:01;97246.69;;;14.62;77.71
21980;BME280;11154;48.558;9.234;2023-04-28T03:08:03;97246.50;;;14.64;77.76
21980;BME280;11154;48.558;9.234;2023-04-28T03:10:06;97249.16;;;14.64;77.79
21980;BME280;11154;48.558;9.234;2023-04-28T03:12:08;97244.03;;;14.62;77.49
21980;BME280;11154;48.558;9.234;2023-04-28T03:14:09;97244.22;;;14.61;77.53
21980;BME280;11154;48.558;9.234;2023-04-28T03:16:11;97238.59;;;14.56;77.90
21980;BME280;11154;48.558;9.234;2023-04-28T03:18:14;97248.47;;;14.55;77.86
21980;BME280;11154;48.558;9.234;2023-04-28T03:20:16;97247.84;;;14.53;78.39
21980;BME280;11154;48.558;9.234;2023-04-28T03:22:18;97241.88;;;14.51;78.18
21980;BME280;11154;48.558;9.234;2023-04-28T03:24:20;97246.63;;;14.56;78.55
21980;BME280;11154;48.558;9.234;2023-04-28T03:26:21;97243.13;;;14.55;78.67
21980;BME280;11154;48.558;9.234;2023-04-28T03:28:23;97241.09;;;14.57;78.65
21980;BME280;11154;48.558;9.234;2023-04-28T03:30:25;97242.56;;;14.60;78.74
21980;BME280;11154;48.558;9.234;2023-04-28T03:32:27;97231.84;;;14.60;78.77
21980;BME280;11154;48.558;9.234;2023-04-28T03:34:30;97233.13;;;14.64;78.74
21980;BME280;11154;48.558;9.234;2023-04-28T03:36:31;97235.59;;;14.65;79.15
21980;BME280;11154;48.558;9.234;2023-04-28T03:38:33;97236.22;;;14.67;79.80
21980;BME280;11154;48.558;9.234;2023-04-28T03:40:35;97231.72;;;14.68;79.81
21980;BME280;11154;48.558;9.234;2023-04-28T03:42:37;97231.72;;;14.68;80.53
21980;BME280;11154;48.558;9.234;2023-04-28T03:44:38;97231.72;;;14.68;81.00
21980;BME280;11154;48.558;9.234;2023-04-28T03:46:40;97231.72;;;14.68;81.71
21980;BME280;11154;48.558;9.234;2023-04-28T03:48:42;97242.81;;;14.65;82.25
21980;BME280;11154;48.558;9.234;2023-04-28T03:50:46;97244.06;;;14.69;82.56
21980;BME280;11154;48.558;9.234;2023-04-28T03:52:48;97225.53;;;14.67;82.54
21980;BME280;11154;48.558;9.234;2023-04-28T03:54:50;97226.53;;;14.66;82.70
21980;BME280;11154;48.558;9.234;2023-04-28T03:56:51;97227.38;;;14.67;82.53
21980;BME280;11154;48.558;9.234;2023-04-28T03:58:53;97227.19;;;14.68;83.01
21980;BME280;11154;48.558;9.234;2023-04-28T04:00:55;97229.06;;;14.68;83.32
21980;BME280;11154;48.558;9.234;2023-04-28T04:02:56;97222.84;;;14.67;83.33
21980;BME280;11154;48.558;9.234;2023-04-28T04:04:58;97224.50;;;14.68;83.81
21980;BME280;11154;48.558;9.234;2023-04-28T04:07:01;97224.94;;;14.72;83.30
21980;BME280;11154;48.558;9.234;2023-04-28T04:09:03;97219.41;;;14.73;83.43
21980;BME280;11154;48.558;9.234;2023-04-28T04:11:05;97214.88;;;14.74;82.44
21980;BME280;11154;48.558;9.234;2023-04-28T04:13:06;97211.56;;;14.72;82.71
21980;BME280;11154;48.558;9.234;2023-04-28T04:15:09;97220.63;;;14.71;82.38
21980;BME280;11154;48.558;9.234;2023-04-28T04:17:11;97216.53;;;14.75;82.50
21980;BME280;11154;48.558;9.234;2023-04-28T04:19:13;97208.69;;;14.73;82.90
21980;BME280;11154;48.558;9.234;2023-04-28T04:21:14;97211.56;;;14.72;82.98
21980;BME280;11154;48.558;9.234;2023-04-28T04:23:17;97216.69;;;14.67;83.19
21980;BME280;11154;48.558;9.234;2023-04-28T04:25:19;97207.78;;;14.60;83.14
21980;BME280;11154;48.558;9.234;2023-04-28T04:27:20;97211.66;;;14.57;84.12
21980;BME280;11154;48.558;9.234;2023-04-28T04:29:22;97201.13;;;14.56;83.26
21980;BME280;11154;48.558;9.234;2023-04-28T04:31:24;97202.19;;;14.55;82.70
21980;BME280;11154;48.558;9.234;2023-04-28T04:33:25;97211.84;;;14.56;83.23
21980;BME280;11154;48.558;9.234;2023-04-28T04:35:27;97213.13;;;14.60;83.77
21980;BME280;11154;48.558;9.234;2023-04-28T04:37:28;97211.47;;;14.59;84.36
21980;BME280;11154;48.558;9.234;2023-04-28T04:39:32;97218.06;;;14.63;84.79
21980;BME280;11154;48.558;9.234;2023-04-28T04:41:33;97218.34;;;14.68;86.59
21980;BME280;11154;48.558;9.234;2023-04-28T04:43:35;97214.03;;;14.73;87.75
21980;BME280;11154;48.558;9.234;2023-04-28T04:45:36;97211.94;;;14.69;87.11
21980;BME280;11154;48.558;9.234;2023-04-28T04:47:39;97205.34;;;14.65;86.24
21980;BME280;11154;48.558;9.234;2023-04-28T04:49:41;97209.03;;;14.64;85.83
21980;BME280;11154;48.558;9.234;2023-04-28T04:51:42;97202.22;;;14.61;86.01
21980;BME280;11154;48.558;9.234;2023-04-28T04:53:44;97206.13;;;14.59;85.50
21980;BME280;11154;48.558;9.234;2023-04-28T04:55:47;97205.75;;;14.62;86.01
21980;BME280;11154;48.558;9.234;2023-04-28T04:57:49;97213.38;;;14.65;86.39
21980;BME280;11154;48.558;9.234;2023-04-28T04:59:50;97210.69;;;14.65;86.45
21980;BME280;11154;48.558;9.234;2023-04-28T05:01:52;97213.16;;;14.66;86.83
21980;BME280;11154;48.558;9.234;2023-04-28T05:03:54;97207.63;;;14.68;86.08
21980;BME280;11154;48.558;9.234;2023-04-28T05:05:55;97207.00;;;14.66;85.48
21980;BME280;11154;48.558;9.234;2023-04-28T05:07:57;97205.56;;;14.70;85.27
21980;BME280;11154;48.558;9.234;2023-04-28T05:09:59;97205.19;;;14.73;85.20
21980;BME280;11154;48.558;9.234;2023-04-28T05:12:02;97199.84;;;14.73;85.28
21980;BME280;11154;48.558;9.234;2023-04-28T05:14:04;97198.63;;;14.75;85.54
21980;BME280;11154;48.558;9.234;2023-04-28T05:16:06;97191.03;;;14.79;86.48
21980;BME280;11154;48.558;9.234;2023-04-28T05:18:07;97197.84;;;14.81;86.93
21980;BME280;11154;48.558;9.234;2023-04-28T05:20:11;97193.94;;;14.84;87.48
21980;BME280;11154;48.558;9.234;2023-04-28T05:22:12;97199.94;;;14.86;88.27
21980;BME280;11154;48.558;9.234;2023-04-28T05:24:14;97195.19;;;14.88;88.35
21980;BME280;11154;48.558;9.234;2023-04-28T05:26:16;97187.81;;;14.90;87.36
21980;BME280;11154;48.558;9.234;2023-04-28T05:28:19;97196.06;;;14.95;88.42
21980;BME280;11154;48.558;9.234;2023-04-28T05:30:21;97197.72;;;14.96;89.27
21980;BME280;11154;48.558;9.234;2023-04-28T05:32:22;97199.97;;;14.92;89.43
21980;BME280;11154;48.558;9.234;2023-04-28T05:34:24;97187.44;;;14.93;90.11
21980;BME280;11154;48.558;9.234;2023-04-28T05:36:26;97192.97;;;14.91;90.04
21980;BME280;11154;48.558;9.234;2023-04-28T05:38:28;97196.47;;;14.92;90.14
21980;BME280;11154;48.558;9.234;2023-04-28T05:40:31;97199.38;;;14.90;89.52
21980;BME280;11154;48.558;9.234;2023-04-28T05:42:32;97207.56;;;14.89;89.10
21980;BME280;11154;48.558;9.234;2023-04-28T05:44:35;97203.66;;;14.91;89.61
21980;BME280;11154;48.558;9.234;2023-04-28T05:46:37;97203.88;;;14.90;89.92
21980;BME280;11154;48.558;9.234;2023-04-28T05:48:39;97206.97;;;14.87;90.56
21980;BME280;11154;48.558;9.234;2023-04-28T05:50:40;97203.00;;;14.83;91.02
21980;BME280;11154;48.558;9.234;2023-04-28T05:52:42;97198.06;;;14.80;91.25
21980;BME280;11154;48.558;9.234;2023-04-28T05:54:44;97204.41;;;14.79;91.40
21980;BME280;11154;48.558;9.234;2023-04-28T05:56:45;97201.31;;;14.75;91.57
21980;BME280;11154;48.558;9.234;2023-04-28T05:58:47;97205.41;;;14.71;90.54
21980;BME280;11154;48.558;9.234;2023-04-28T06:00:51;97203.53;;;14.72;89.72
21980;BME280;11154;48.558;9.234;2023-04-28T07:07:30;97168.28;;;15.29;97.79
21980;BME280;11154;48.558;9.234;2023-04-28T07:09:32;97166.06;;;15.33;98.18
21980;BME280;11154;48.558;9.234;2023-04-28T07:11:34;97166.44;;;15.30;98.13
21980;BME280;11154;48.558;9.234;2023-04-28T07:13:36;97166.84;;;15.27;98.05
21980;BME280;11154;48.558;9.234;2023-04-28T07:15:38;97164.16;;;15.27;98.20
21980;BME280;11154;48.558;9.234;2023-04-28T07:17:40;97161.69;;;15.25;98.54
21980;BME280;11154;48.558;9.234;2023-04-28T07:19:42;97168.28;;;15.29;99.32
21980;BME280;11154;48.558;9.234;2023-04-28T07:21:43;97162.53;;;15.32;99.97
21980;BME280;11154;48.558;9.234;2023-04-28T07:23:47;97159.66;;;15.34;100.00
21980;BME280;11154;48.558;9.234;2023-04-28T07:25:49;97157.16;;;15.32;99.68
21980;BME280;11154;48.558;9.234;2023-04-28T07:27:51;97164.59;;;15.30;99.40
21980;BME280;11154;48.558;9.234;2023-04-28T07:29:53;97157.81;;;15.34;100.00
21980;BME280;11154;48.558;9.234;2023-04-28T07:31:55;97152.66;;;15.39;100.00
21980;BME280;11154;48.558;9.234;2023-04-28T07:33:56;97158.03;;;15.39;100.00
21980;BME280;11154;48.558;9.234;2023-04-28T07:35:58;97155.97;;;15.41;100.00
21980;BME280;11154;48.558;9.234;2023-04-28T07:38:01;97150.63;;;15.41;100.00
21980;BME280;11154;48.558;9.234;2023-04-28T07:40:05;97152.91;;;15.44;100.00
21980;BME280;11154;48.558;9.234;2023-04-28T07:42:07;97152.50;;;15.47;100.00
21980;BME280;11154;48.558;9.234;2023-04-28T07:44:09;97146.13;;;15.48;100.00
21980;BME280;11154;48.558;9.234;2023-04-28T07:46:11;97154.59;;;15.52;100.00
21980;BME280;11154;48.558;9.234;2023-04-28T07:48:13;97152.72;;;15.52;100.00
21980;BME280;11154;48.558;9.234;2023-04-28T07:50:15;97156.84;;;15.55;100.00
21980;BME280;11154;48.558;9.234;2023-04-28T07:52:17;97159.34;;;15.56;100.00
21980;BME280;11154;48.558;9.234;2023-04-28T07:54:18;97159.34;;;15.56;100.00
21980;BME280;11154;48.558;9.234;2023-04-28T07:56:21;97151.09;;;15.58;100.00
21980;BME280;11154;48.558;9.234;2023-04-28T07:58:23;97154.59;;;15.58;100.00
21980;BME280;11154;48.558;9.234;2023-04-28T08:00:25;97147.41;;;15.59;100.00
21980;BME280;11154;48.558;9.234;2023-04-28T08:02:27;97153.78;;;15.58;100.00
21980;BME280;11154;48.558;9.234;2023-04-28T08:04:28;97146.56;;;15.58;100.00
21980;BME280;11154;48.558;9.234;2023-04-28T08:06:31;97144.50;;;15.60;100.00
21980;BME280;11154;48.558;9.234;2023-04-28T08:08:33;97154.00;;;15.63;100.00
21980;BME280;11154;48.558;9.234;2023-04-28T08:10:35;97154.84;;;15.63;100.00
21980;BME280;11154;48.558;9.234;2023-04-28T08:12:38;97158.13;;;15.65;100.00
21980;BME280;11154;48.558;9.234;2023-04-28T08:14:41;97167.41;;;15.63;100.00
21980;BME280;11154;48.558;9.234;2023-04-28T08:16:42;97169.66;;;15.59;100.00
21980;BME280;11154;48.558;9.234;2023-04-28T08:18:45;97169.03;;;15.57;100.00
21980;BME280;11154;48.558;9.234;2023-04-28T08:20:47;97169.66;;;15.59;100.00
21980;BME280;11154;48.558;9.234;2023-04-28T08:22:49;97180.59;;;15.58;100.00
21980;BME280;11154;48.558;9.234;2023-04-28T08:24:51;97174.41;;;15.57;100.00
21980;BME280;11154;48.558;9.234;2023-04-28T08:26:52;97180.78;;;15.56;100.00
21980;BME280;11154;48.558;9.234;2023-04-28T08:28:55;97180.78;;;15.56;100.00
21980;BME280;11154;48.558;9.234;2023-04-28T08:30:57;97187.16;;;15.55;100.00
21980;BME280;11154;48.558;9.234;2023-04-28T08:32:58;97185.50;;;15.54;100.00
21980;BME280;11154;48.558;9.234;2023-04-28T08:35:00;97199.56;;;15.56;100.00
21980;BME280;11154;48.558;9.234;2023-04-28T08:37:02;97196.44;;;15.59;100.00
21980;BME280;11154;48.558;9.234;2023-04-28T08:39:06;97192.75;;;15.60;100.00
21980;BME280;11154;48.558;9.234;2023-04-28T08:41:08;97194.63;;;15.66;100.00
21980;BME280;11154;48.558;9.234;2023-04-28T08:43:10;97199.41;;;15.71;100.00
21980;BME280;11154;48.558;9.234;2023-04-28T08:45:14;97194.47;;;15.74;100.00
21980;BME280;11154;48.558;9.234;2023-04-28T08:47:18;97205.81;;;15.76;100.00
21980;BME280;11154;48.558;9.234;2023-04-28T08:49:26;97201.69;;;15.80;100.00
21980;BME280;11154;48.558;9.234;2023-04-28T08:51:33;97205.63;;;15.84;100.00
21980;BME280;11154;48.558;9.234;2023-04-28T08:53:37;97208.72;;;15.88;100.00
21980;BME280;11154;48.558;9.234;2023-04-28T08:55:39;97201.94;;;15.91;100.00
21980;BME280;11154;48.558;9.234;2023-04-28T08:57:43;97214.13;;;15.94;100.00
21980;BME280;11154;48.558;9.234;2023-04-28T08:59:44;97211.03;;;15.97;100.00
21980;BME280;11154;48.558;9.234;2023-04-28T09:01:49;97211.03;;;15.97;100.00
21980;BME280;11154;48.558;9.234;2023-04-28T09:03:52;97214.75;;;16.02;100.00
21980;BME280;11154;48.558;9.234;2023-04-28T09:05:55;97211.88;;;16.04;100.00
21980;BME280;11154;48.558;9.234;2023-04-28T09:07:56;97209.81;;;16.06;100.00
21980;BME280;11154;48.558;9.234;2023-04-28T09:10:19;97212.72;;;16.11;100.00
21980;BME280;11154;48.558;9.234;2023-04-28T09:12:20;97218.06;;;16.11;100.00
21980;BME280;11154;48.558;9.234;2023-04-28T09:14:24;97215.63;;;16.22;100.00
21980;BME280;11154;48.558;9.234;2023-04-28T09:16:38;97223.75;;;16.35;100.00
21980;BME280;11154;48.558;9.234;2023-04-28T09:18:54;97222.91;;;16.41;100.00
21980;BME280;11154;48.558;9.234;2023-04-28T09:21:05;97220.44;;;16.46;100.00
21980;BME280;11154;48.558;9.234;2023-04-28T09:23:14;97220.84;;;16.50;100.00
21980;BME280;11154;48.558;9.234;2023-04-28T09:25:17;97223.53;;;16.50;100.00
21980;BME280;11154;48.558;9.234;2023-04-28T09:27:25;97228.28;;;16.48;100.00
21980;BME280;11154;48.558;9.234;2023-04-28T09:29:28;97227.69;;;16.46;100.00
21980;BME280;11154;48.558;9.234;2023-04-28T09:31:29;97220.66;;;16.45;100.00
21980;BME280;11154;48.558;9.234;2023-04-28T09:33:31;97228.50;;;16.46;100.00
21980;BME280;11154;48.558;9.234;2023-04-28T09:35:41;97226.63;;;16.47;100.00
21980;BME280;11154;48.558;9.234;2023-04-28T09:37:44;97233.88;;;16.53;100.00
21980;BME280;11154;48.558;9.234;2023-04-28T09:39:47;97229.53;;;16.58;100.00
21980;BME280;11154;48.558;9.234;2023-04-28T09:41:49;97226.84;;;16.58;100.00
21980;BME280;11154;48.558;9.234;2023-04-28T09:43:51;97237.59;;;16.64;100.00
21980;BME280;11154;48.558;9.234;2023-04-28T09:45:53;97251.03;;;16.64;100.00
21980;BME280;11154;48.558;9.234;2023-04-28T09:48:08;97234.72;;;16.66;100.00
21980;BME280;11154;48.558;9.234;2023-04-28T09:50:12;97230.78;;;16.68;100.00
21980;BME280;11154;48.558;9.234;2023-04-28T09:52:17;97222.09;;;16.66;100.00
21980;BME280;11154;48.558;9.234;2023-04-28T09:54:20;97236.16;;;16.68;100.00
21980;BME280;11154;48.558;9.234;2023-04-28T09:56:23;97241.72;;;16.73;100.00
21980;BME280;11154;48.558;9.234;2023-04-28T09:58:28;97236.16;;;16.81;100.00
21980;BME280;11154;48.558;9.234;2023-04-28T10:00:32;97231.41;;;16.90;100.00
21980;BME280;11154;48.558;9.234;2023-04-28T10:02:36;97236.16;;;16.94;100.00
21980;BME280;11154;48.558;9.234;2023-04-28T10:04:39;97245.03;;;17.01;100.00
21980;BME280;11154;48.558;9.234;2023-04-28T10:06:41;97240.66;;;17.07;100.00
21980;BME280;11154;48.558;9.234;2023-04-28T10:08:47;97245.03;;;17.14;100.00
21980;BME280;11154;48.558;9.234;2023-04-28T10:10:50;97248.72;;;17.20;100.00
21980;BME280;11154;48.558;9.234;2023-04-28T10:12:54;97248.09;;;17.24;100.00
21980;BME280;11154;48.558;9.234;2023-04-28T10:14:57;97244.59;;;17.24;100.00
21980;BME280;11154;48.558;9.234;2023-04-28T10:16:59;97239.22;;;17.30;100.00
21980;BME280;11154;48.558;9.234;2023-04-28T10:19:03;97243.56;;;17.38;100.00
21980;BME280;11154;48.558;9.234;2023-04-28T10:21:05;97239.41;;;17.41;100.00
21980;BME280;11154;48.558;9.234;2023-04-28T10:25:41;97237.50;;;17.55;100.00
21980;BME280;11154;48.558;9.234;2023-04-28T10:27:44;97239.56;;;17.66;100.00
21980;BME280;11154;48.558;9.234;2023-04-28T10:29:47;97235.41;;;17.70;100.00
21980;BME280;11154;48.558;9.234;2023-04-28T10:32:19;97230.66;;;17.72;100.00
21980;BME280;11154;48.558;9.234;2023-04-28T10:34:22;97237.41;;;17.81;100.00
21980;BME280;11154;48.558;9.234;2023-04-28T10:36:46;97237.63;;;17.86;100.00
21980;BME280;11154;48.558;9.234;2023-04-28T10:39:08;97226.66;;;17.87;100.00
21980;BME280;11154;48.558;9.234;2023-04-28T10:41:32;97226.59;;;17.94;100.00
21980;BME280;11154;48.558;9.234;2023-04-28T10:43:36;97232.38;;;17.97;100.00
21980;BME280;11154;48.558;9.234;2023-04-28T10:46:01;97232.38;;;18.04;100.00
21980;BME280;11154;48.558;9.234;2023-04-28T10:48:05;97218.06;;;18.09;100.00
21980;BME280;11154;48.558;9.234;2023-04-28T10:50:07;97231.91;;;18.13;100.00
21980;BME280;11154;48.558;9.234;2023-04-28T10:57:25;97215.19;;;18.05;100.00
21980;BME280;11154;48.558;9.234;2023-04-28T10:59:27;97218.28;;;18.08;100.00
21980;BME280;11154;48.558;9.234;2023-04-28T11:01:30;97222.78;;;18.14;100.00
21980;BME280;11154;48.558;9.234;2023-04-28T11:03:47;97221.09;;;18.26;100.00
21980;BME280;11154;48.558;9.234;2023-04-28T11:06:17;97227.25;;;18.33;100.00
21980;BME280;11154;48.558;9.234;2023-04-28T11:08:34;97219.75;;;18.41;100.00
21980;BME280;11154;48.558;9.234;2023-04-28T11:11:11;97216.44;;;18.39;100.00
21980;BME280;11154;48.558;9.234;2023-04-28T11:13:27;97216.19;;;18.47;100.00
21980;BME280;11154;48.558;9.234;2023-04-28T11:15:33;97210.19;;;18.45;100.00
21980;BME280;11154;48.558;9.234;2023-04-28T11:17:39;97207.09;;;18.42;100.00
21980;BME280;11154;48.558;9.234;2023-04-28T11:19:42;97205.66;;;18.39;100.00
21980;BME280;11154;48.558;9.234;2023-04-28T11:21:45;97203.59;;;18.41;100.00
21980;BME280;11154;48.558;9.234;2023-04-28T11:23:47;97216.41;;;18.46;100.00
21980;BME280;11154;48.558;9.234;2023-04-28T11:25:52;97218.22;;;18.52;100.00
21980;BME280;11154;48.558;9.234;2023-04-28T11:28:02;97208.28;;;18.52;100.00
21980;BME280;11154;48.558;9.234;2023-04-28T11:30:20;97205.81;;;18.51;100.00
21980;BME280;11154;48.558;9.234;2023-04-28T11:32:27;97206.03;;;18.49;100.00
21980;BME280;11154;48.558;9.234;2023-04-28T11:34:29;97211.41;;;18.49;100.00
21980;BME280;11154;48.558;9.234;2023-04-28T11:36:33;97214.28;;;18.54;100.00
21980;BME280;11154;48.558;9.234;2023-04-28T11:38:42;97215.09;;;18.55;100.00
21980;BME280;11154;48.558;9.234;2023-04-28T11:40:55;97215.53;;;18.52;100.00
21980;BME280;11154;48.558;9.234;2023-04-28T11:42:57;97211.19;;;18.51;100.00
21980;BME280;11154;48.558;9.234;2023-04-28T11:44:59;97213.44;;;18.54;100.00
21980;BME280;11154;48.558;9.234;2023-04-28T11:47:03;97211.97;;;18.58;100.00
21980;BME280;11154;48.558;9.234;2023-04-28T11:49:05;97211.53;;;18.61;100.00
21980;BME280;11154;48.558;9.234;2023-04-28T11:51:06;97213.56;;;18.65;100.00
21980;BME280;11154;48.558;9.234;2023-04-28T11:53:08;97213.78;;;18.64;100.00
21980;BME280;11154;48.558;9.234;2023-04-28T11:55:15;97209.22;;;18.64;100.00
21980;BME280;11154;48.558;9.234;2023-04-28T11:57:18;97202.78;;;18.65;100.00
21980;BME280;11154;48.558;9.234;2023-04-28T11:59:23;97199.66;;;18.68;100.00
21980;BME280;11154;48.558;9.234;2023-04-28T12:01:25;97200.25;;;18.70;100.00